Changbai, China
Current Conditions -  °F | °C
As of 6:40 PM on Tuesday 27 Jan 2015 (Local Time) from KQEI Reporting Station
Haze Haze  
Wind Chill: 28°   Ceiling: Unl
Heat Index: 28°   Visibility: 4mi
Dew Point: 16°   Wind: 1mph
Humidity: 59%   Direction: 180°S
Pressure: 30.19"   Gusts: NA
Location:  41.43°N, 128.14°E
Report Text: KQEI 271040Z AUTO 18001KT 6000 HZ CLR M02/M09 A3019 RMK A02 TSNO
Loading
Personal Weather Stations






























Interactive Weather Map New forecast layout! Learn more

10-Day Weather Forecast

Advertisements
Track Severe Weather on mobile